Gainesville, TX

1:36 AM CDT on October 01, 2016 (GMT -0500)
North Gainesville, TX I35 Exit 501 FM1202/CR444 | | Change Station

Elev 853 ft 33.68 °N, 97.19 °W | Updated 12 seconds ago

Clear
Clear
56.9 °F
Feels Like 56.9 °F
N
0.0
Wind Variable Wind from NNE

Today
High -- | Low -- °F
--% Chance of Precip.
Yesterday
High -- | Low -- °F
Precip. -- in
Pressure 30.08 in
Visibility 10.0 miles
Clouds Clear
Dew Point 51 °F
Humidity 81%
Rainfall 0.00 in
Snow Depth Not available.
7:23 AM 7:12 PM
New Moon, 0% visible
METAR KDTO 010553Z AUTO 00000KT 10SM CLR 13/12 A3010 RMK AO2 SLP186 T01330122 10228 20133 402610094 50001
Pressure 30.08 in
Visibility 10.0 miles
Clouds Clear
Dew Point 51 °F
Humidity 81%
Rainfall 0.00 in
Snow Depth Not available.
7:23 AM 7:12 PM
New Moon, 0% visible
METAR KDTO 010553Z AUTO 00000KT 10SM CLR 13/12 A3010 RMK AO2 SLP186 T01330122 10228 20133 402610094 50001

10-Day Weather Forecast

Almanac

Astronomy

Oct. 01, 2016 Rise Set
Actual Time
Civil Twilight
Nautical Twilight
Astronomical Twilight
Moon
Length of Visible Light
Length of Day
Tomorrow will be .
, % of the Moon is Illuminated

Today's Extremes

State Highs State Lows

Community

WunderPhotos

Upload Photos

1,942,898 photos uploaded!

WunderBlog® & News

Nearby

Air Quality

  Air Quality AQ Index Pollutant
Not available.

Snow Depth

Station Depth Elevation

Earthquake Activity

City Distance Mag. Time & Date
Minimum magnitude displayed is 2.5.

Coastal Water Temperatures

Place Temperature

Stations

Nearby Weather Stations

Station Location Temp. Windchill Dew Point Humidity Wind Precip. Elev Updated Type
                   

Watches & Warnings

There are currently no watches in effect.